Tiempo atmosférico en la estación meteorológica de Lorca, Zarcilla de Ramos, Murcia (674 m.)



Fecha
DESCASC
Temp. máxima en grados centígrados (hora)
DESCASC
Temp. mínima en grados centígrados (hora)
DESCASC
Temp. media en grados centígrados
DESCASC
Racha de viento máxima en m/sg (hora)
DESCASC
Velocidad máxima media en intervalos de 10 minutos(hora)
DESCASC
Precipitaciones diarias en mm
DESCASC
Precipitaciones de 00:00 a 06:00 en mm
DESCASC
Precipitaciones de 06:00 a 12:00 en mm
DESCASC
Precipitaciones de 12:00 a 18:00 en mm
DESCASC
Precipitaciones de 18:00 a 24:00 en mm
DESCASC
08-12-2019 17.2 (15:20) 5.4 (01:00) 11.3 7.78 (22:20) 5.28 (17:40) 0 0 0 0 0
07-12-2019 16.4 (16:00) 4.6 (02:50) 10.5 5.83 (06:50) 4.17 (06:50) 0 0 0 0 0
06-12-2019 12.3 (15:00) 5.9 (02:00) 9.1 7.78 (11:20) 4.72 (11:20) 0 0 0 0 0
05-12-2019 11.9 (13:10) 5.8 (00:00) 8.8 4.72 (02:30) 3.33 (04:20) 0.4 0.4 0 0 0
04-12-2019 10.5 (13:40) 6.7 (00:00) 8.6 9.72 (07:00) 6.67 (04:40) 0.2 0.2 0 0 0
03-12-2019 9.2 (02:00) 6.4 (00:00) 7.8 12.78 (22:30) 8.61 (03:40) 22.2 18.2 0.2 2.8 1
02-12-2019 10.6 (13:00) 7.8 (00:00) 9.2 7.5 (23:40) 5 (05:20) 15.2 7.8 0 2 5.4
01-12-2019 16.3 (15:10) 8 (00:00) 12.1 11.39 (12:00) 6.67 (12:00) 0 0 0 0 0
30-11-2019 20.2 (15:20) 7.7 (00:00) 14 6.11 (08:00) 4.72 (08:00) 0 0 0 0 0
29-11-2019 21.6 (14:40) 8.6 (00:00) 15.1 10.56 (03:40) 7.5 (03:40) 0 0 0 0 0
28-11-2019 19.1 (15:50) 7.5 (00:00) 13.3 12.22 (06:00) 7.5 (06:00) 0 0 0 0 0
27-11-2019 18 (15:00) 8.4 (00:00) 13.2 11.94 (13:20) 7.78 (13:20) 0 0 0 0 0
26-11-2019 19.4 (14:10) 8.6 (00:00) 14 11.11 (21:00) 7.22 (21:00) 0 0 0 0 0
25-11-2019 16.1 (15:20) 7.1 (00:00) 11.6 11.94 (10:50) 8.06 (10:50) 0 0 0 0 0
24-11-2019 13.9 (16:30) 7 (00:00) 10.4 15.28 (23:00) 9.17 (23:00) 0 0 0 0 0
23-11-2019 13.3 (13:50) 7.1 (00:00) 10.2 29.72 (11:20) 16.39 (04:20) 1.4 1.2 0.2 0 0
22-11-2019 12.8 (14:10) 6.1 (00:00) 9.5 10.83 (23:10) 6.11 (23:59) 10.4 0 0.2 3.6 6.6
21-11-2019 14.9 (15:50) 5.6 (00:00) 10.2 10.56 (05:10) 7.22 (05:20) 0.8 0 0 0 0.8
20-11-2019 14.6 (14:50) 0.4 (00:00) 7.5 10.28 (16:50) 6.39 (17:00) 0.4 0 0 0.4 0
19-11-2019 13.7 (14:00) 1.2 (00:00) 7.4 8.61 (11:20) 5 (07:30) 0 0 0 0 0
18-11-2019 13 (14:10) 5.5 (00:00) 9.3 13.06 (00:40) 8.06 (00:10) 3.6 3.4 0.2 0 0
17-11-2019 13.4 (15:10) -1.9 (-00:0) 5.7 11.39 (22:40) 6.94 (22:50) 0 0 0 0 0
16-11-2019 12.2 (14:00) 1.5 (00:00) 6.8 10.56 (13:30) 6.67 (13:20) 0 0 0 0 0
15-11-2019 10.5 (12:50) 3.2 (00:00) 6.9 21.94 (00:20) 13.89 (00:20) 0 0 0 0 0
14-11-2019 13.9 (13:50) 7.3 (00:00) 10.6 21.39 (23:10) 13.61 (22:00) 0.2 0 0 0.2 0
13-11-2019 19.8 (14:30) 10.6 (00:00) 15.2 14.44 (08:20) 9.17 (14:50) 0 0 0 0 0
12-11-2019 16.2 (14:10) 5 (00:00) 10.6 11.67 (11:00) 7.5 (11:40) 0 0 0 0 0
11-11-2019 15.1 (15:20) 4.3 (04:00) 9.7 12.5 (18:50) 8.06 (00:20) 0 0 0 0 0

Gráficas

Temp. máximas Temp. mínimas Temp. medias Precipitaciones Rachas de viento máximas Velocidades máximas media en intervalos de 10 minutos

Datos horarios

Fecha y hora oficial Temperatura (ºC) Velocidad del viento (km/h) Dirección del viento Racha (km/h) Dirección de racha Precipitación (mm) Presión (hPa) Tendencia (hPa) Humedad (%)
2019-12-10 23:00:00 10 10 Noroeste 22 Noroeste 0 -- -- 54
2019-12-10 22:00:00 8.1 8 Norte 14 Norte 0 -- -- 58
2019-12-10 21:00:00 8.5 3 Nordeste 13 Norte 0 -- -- 56
2019-12-10 20:00:00 9.1 10 Norte 18 Noroeste 0 -- -- 57
2019-12-10 19:00:00 11.1 12 Noroeste 16 Noroeste 0 -- -- 51
2019-12-10 18:00:00 11.3 6 Nordeste 14 Noroeste 0 -- -- 55
2019-12-10 17:00:00 16.8 8 Noroeste 13 Noroeste 0 -- -- 42
2019-12-10 16:00:00 18.5 9 Norte 18 Nordeste 0 -- -- 27
2019-12-10 15:00:00 18.9 12 Norte 18 Norte 0 -- -- 29
2019-12-10 14:00:00 18.7 10 Norte 18 Noroeste 0 -- -- 23
2019-12-10 13:00:00 17.6 6 Oeste 21 Noroeste 0 -- -- 36
2019-12-10 12:00:00 15.6 9 Noroeste 14 Noroeste 0 -- -- 42
2019-12-10 11:00:00 13.7 7 Sudeste 31 Oeste 0 -- -- 48
2019-12-10 10:00:00 10.7 5 Norte 26 Noroeste 0 -- -- 51
2019-12-10 09:00:00 9.7 28 Noroeste 44 Noroeste 0 -- -- 46
2019-12-10 08:00:00 8 29 Noroeste 41 Noroeste 0 -- -- 60
2019-12-10 07:00:00 7.4 23 Noroeste 29 Noroeste 0 -- -- 63
2019-12-10 06:00:00 8 18 Norte 32 Norte 0 -- -- 60
2019-12-10 05:00:00 8.6 16 Norte 34 Norte 0 -- -- 59
2019-12-10 04:00:00 8.7 21 Noroeste 31 Noroeste 0 -- -- 62
2019-12-10 03:00:00 9.2 22 Norte 33 Noroeste 0 -- -- 61
2019-12-10 02:00:00 10 24 Norte 31 Noroeste 0 -- -- 61
2019-12-10 01:00:00 9.3 15 Noroeste 28 Noroeste 0 -- -- 56
2019-12-10 00:00:00 10.1 17 Noroeste 23 Noroeste 0 -- -- 62
2019-12-09 23:00:00 10.6 12 Noroeste 21 Noroeste 0 -- -- 58
2019-12-09 22:00:00 11 13 Norte 22 Noroeste 0 -- -- 51
2019-12-09 21:00:00 12.5 13 Norte 26 Noroeste 0 -- -- 45
2019-12-09 20:00:00 10.3 3 Este 21 Oeste 0 -- -- 54
2019-12-09 19:00:00 13.9 15 Oeste 32 Noroeste 0 -- -- 36
2019-12-09 18:00:00 15.1 18 Oeste 30 Oeste 0 -- -- 41
2019-12-09 17:00:00 15.3 16 Oeste 27 Oeste 0 -- -- 53
2019-12-09 16:00:00 17 20 Oeste 31 Oeste 0 -- -- 50
2019-12-09 15:00:00 17.2 16 Sudoeste 26 Sudoeste 0 -- -- 51
2019-12-09 14:00:00 17.8 9 Noroeste 19 Oeste 0 -- -- 46
2019-12-09 13:00:00 17.1 8 Noroeste 15 Noroeste 0 -- -- 48
2019-12-09 12:00:00 15.1 12 Noroeste 19 Noroeste 0 -- -- 54
2019-12-09 11:00:00 13.4 15 Noroeste 23 Norte 0 -- -- 62
2019-12-09 10:00:00 11.6 14 Noroeste 23 Noroeste 0 -- -- 66
2019-12-09 09:00:00 10 13 Norte 19 Norte 0 -- -- 71
2019-12-09 08:00:00 10 9 Oeste 29 Noroeste 0 -- -- 73
2019-12-09 07:00:00 9.8 11 Noroeste 30 Noroeste 0 -- -- 74
2019-12-09 06:00:00 11.1 18 Oeste 33 Oeste 0 -- -- 71
2019-12-09 05:00:00 10.3 8 Noroeste 21 Oeste 0 -- -- 75
2019-12-09 04:00:00 10.5 8 Oeste 24 Sudoeste 0 -- -- 73
2019-12-09 03:00:00 11.2 12 Oeste 19 Oeste 0 -- -- 68
2019-12-09 02:00:00 10.4 3 Noroeste 11 Norte 0 -- -- 70
2019-12-09 01:00:00 9.3 3 Sur 11 Norte 0 -- -- 72
2019-12-09 00:00:00 10.4 8 Norte 21 Oeste 0 -- -- 65
2019-12-08 23:00:00 11.1 10 Noroeste 28 Oeste 0 -- -- 62
2019-12-08 22:00:00 9.7 5 Nordeste 9 Norte 0 -- -- 69
2019-12-08 21:00:00 10.5 7 Noroeste 20 Oeste 0 -- -- 68
2019-12-08 20:00:00 11.8 10 Oeste 21 Noroeste 0 -- -- 63
2019-12-08 19:00:00 11.1 3 Sur 21 Oeste 0 -- -- 70
2019-12-08 18:00:00 13.3 16 Oeste 27 Oeste 0 -- -- 61
2019-12-08 17:00:00 15.6 14 Oeste 25 Oeste 0 -- -- 51
2019-12-08 16:00:00 16.9 13 Sudoeste 21 Sudoeste 0 -- -- 48
2019-12-08 15:00:00 16.9 11 Sudoeste 20 Sudoeste 0 -- -- 48
2019-12-08 14:00:00 16.6 7 Sudoeste 15 Noroeste 0 -- -- 47
2019-12-08 13:00:00 15.5 8 Sudoeste 18 Noroeste 0 -- -- 51
2019-12-08 12:00:00 13.8 6 Sudoeste 19 Noroeste 0 -- -- 57
2019-12-08 11:00:00 12.3 3 Este 21 Norte 0 -- -- 66
2019-12-08 10:00:00 9.6 13 Norte 21 Norte 0 -- -- 74
2019-12-08 09:00:00 7.9 5 Noroeste 16 Noroeste 0 -- -- 78
2019-12-08 08:00:00 7.2 11 Noroeste 17 Noroeste 0 -- -- 80
2019-12-08 07:00:00 6.1 5 Norte 9 Noroeste 0 -- -- 84
2019-12-08 06:00:00 6.4 3 Noroeste 19 Norte 0 -- -- 84
2019-12-08 05:00:00 7.1 9 Noroeste 18 Noroeste 0 -- -- 82
2019-12-08 04:00:00 7.4 11 Noroeste 17 Noroeste 0 -- -- 82
2019-12-08 03:00:00 7 9 Noroeste 17 Noroeste 0 -- -- 85
2019-12-08 02:00:00 5.5 3 Oeste 9 Noroeste 0 -- -- 91
2019-12-08 01:00:00 5.4 0 Calma 10 Noroeste 0 -- -- 92
2019-12-08 00:00:00 6.1 6 Noroeste 12 Noroeste 0 -- -- 93
2019-12-07 23:00:00 5.6 2 Oeste 4 Norte 0 -- -- 92
2019-12-07 22:00:00 6.2 2 Sudoeste 7 Norte 0 -- -- 91
2019-12-07 21:00:00 7.1 3 Noroeste 9 Noroeste 0 -- -- 91
2019-12-07 20:00:00 7.6 6 Norte 9 Noroeste 0 -- -- 89
2019-12-07 19:00:00 8.4 4 Noroeste 6 Noroeste 0 -- -- 86
2019-12-07 18:00:00 11.4 5 Sur 9 Sur 0 -- -- 80
2019-12-07 17:00:00 14.1 6 Este 9 Este 0 -- -- 67
2019-12-07 16:00:00 16.4 3 Sur 8 Sur 0 -- -- 55
2019-12-07 15:00:00 16 5 Sudeste 10 Sudeste 0 -- -- 55
2019-12-07 14:00:00 15.8 5 Sur 11 Sudeste 0 -- -- 57
2019-12-07 13:00:00 14.2 4 Este 10 Este 0 -- -- 64
2019-12-07 12:00:00 12.9 3 Sudeste 15 Norte 0 -- -- 71
2019-12-07 11:00:00 11 8 Norte 12 Norte 0 -- -- 79
2019-12-07 10:00:00 8.3 3 Oeste 13 Noroeste 0 -- -- 88
2019-12-07 09:00:00 5.4 9 Norte 16 Norte 0 -- -- 94
2019-12-07 08:00:00 5 10 Norte 16 Norte 0 -- -- 94
2019-12-07 07:00:00 5.6 12 Norte 21 Noroeste 0 -- -- 89
2019-12-07 06:00:00 5.7 11 Norte 17 Noroeste 0 -- -- 93
2019-12-07 05:00:00 5.7 12 Noroeste 15 Norte 0 -- -- 93
2019-12-07 04:00:00 5.1 5 Noroeste 8 Norte 0 -- -- 95
2019-12-07 03:00:00 4.6 3 Noroeste 7 Norte 0 -- -- 94
2019-12-07 02:00:00 5.3 4 Noroeste 8 Noroeste 0 -- -- 93
2019-12-07 01:00:00 6.2 4 Noroeste 9 Noroeste 0 -- -- 93
2019-12-07 00:00:00 6.6 4 Norte 5 Noroeste 0 -- -- 91
2019-12-06 23:00:00 7.2 4 Noroeste 6 Noroeste 0 -- -- 91
2019-12-06 22:00:00 8.9 3 Este 11 Norte 0 -- -- 87
2019-12-06 21:00:00 9.1 7 Norte 14 Norte 0 -- -- 87
2019-12-06 20:00:00 9.5 9 Noroeste 13 Noroeste 0 -- -- 85
2019-12-06 19:00:00 9.3 9 Noroeste 14 Noroeste 0 -- -- 85
2019-12-06 18:00:00 9.2 11 Noroeste 17 Noroeste 0 -- -- 83
2019-12-06 17:00:00 10.8 12 Norte 19 Norte 0 -- -- 78
2019-12-06 16:00:00 11.6 15 Norte 21 Norte 0 -- -- 76
2019-12-06 15:00:00 12.3 12 Norte 19 Noroeste 0 -- -- 77
2019-12-06 14:00:00 11.4 12 Norte 21 Norte 0 -- -- 78
2019-12-06 13:00:00 10.5 14 Norte 21 Norte 0 -- -- 82
2019-12-06 12:00:00 9.9 12 Norte 28 Noroeste 0 -- -- 85
2019-12-06 11:00:00 9.6 15 Noroeste 22 Noroeste 0 -- -- 87
2019-12-06 10:00:00 9.5 11 Norte 18 Noroeste 0 -- -- 88
2019-12-06 09:00:00 9.1 12 Norte 17 Noroeste 0 -- -- 88
2019-12-06 08:00:00 8.8 5 Norte 15 Noroeste 0 -- -- 90
2019-12-06 07:00:00 8.7 7 Norte 18 Noroeste 0 -- -- 91
2019-12-06 06:00:00 8.7 12 Noroeste 17 Norte 0 -- -- 92
2019-12-06 05:00:00 6.6 5 Norte 10 Nordeste 0 -- -- 94
2019-12-06 04:00:00 6.9 3 Oeste 8 Oeste 0 -- -- 93
2019-12-06 03:00:00 6.4 3 Norte 9 Norte 0 -- -- 95
2019-12-06 02:00:00 5.9 4 Norte 6 Nordeste 0 -- -- 93
2019-12-06 01:00:00 7.3 3 Norte 6 Norte 0 -- -- 90
2019-12-06 00:00:00 8.3 5 Noroeste 11 Noroeste 0 -- -- 88
2019-12-05 23:00:00 9 6 Oeste 9 Sudoeste 0 -- -- 86
2019-12-05 22:00:00 8.7 5 Sudoeste 7 Oeste 0 -- -- 89
2019-12-05 21:00:00 9 5 Noroeste 14 Norte 0 -- -- 87
2019-12-05 20:00:00 9.7 10 Norte 14 Noroeste 0 -- -- 83
2019-12-05 19:00:00 9.7 5 Noroeste 9 Norte 0 -- -- 82
2019-12-05 18:00:00 10.3 2 Noroeste 6 Norte 0 -- -- 79
2019-12-05 17:00:00 11 0 Calma 5 Este 0 -- -- 73
2019-12-05 16:00:00 11.1 4 Este 10 Norte 0 -- -- 73
2019-12-05 15:00:00 10.9 8 Norte 13 Norte 0 -- -- 74
2019-12-05 14:00:00 11.5 3 Noroeste 8 Noroeste 0 -- -- 70
2019-12-05 13:00:00 11.6 4 Sudeste 7 Sudeste 0 -- -- 71
2019-12-05 12:00:00 10.3 3 Nordeste 12 Norte 0 -- -- 75
2019-12-05 11:00:00 9.4 10 Norte 16 Norte 0 -- -- 80
2019-12-05 10:00:00 8.3 8 Norte 15 Norte 0 -- -- 84
2019-12-05 09:00:00 7.6 9 Noroeste 14 Noroeste 0 -- -- 89
2019-12-05 08:00:00 5.9 5 Noroeste 6 Noroeste 0 -- -- 92
2019-12-05 07:00:00 6.5 5 Nordeste 15 Noroeste 0 -- -- 86
2019-12-05 06:00:00 7.2 8 Noroeste 14 Noroeste 0 -- -- 88
2019-12-05 05:00:00 7.7 10 Norte 16 Noroeste 0 -- -- 89
2019-12-05 04:00:00 7.5 6 Norte 10 Norte 0.2 -- -- 88
2019-12-05 03:00:00 8.1 3 Noroeste 17 Oeste 0.2 -- -- 82
2019-12-05 02:00:00 8.1 6 Norte 12 Norte 0 -- -- 81
2019-12-05 01:00:00 7.6 3 Este 6 Este 0 -- -- 84
2019-12-05 00:00:00 7.7 5 Sur 10 Este 0 -- -- 84
2019-12-04 23:00:00 8.3 3 Oeste 13 Norte 0 -- -- 81
2019-12-04 22:00:00 8.4 7 Norte 10 Norte 0 -- -- 79
2019-12-04 21:00:00 8.7 4 Sur 14 Oeste 0 -- -- 80
2019-12-04 20:00:00 8.7 4 Oeste 16 Oeste 0 -- -- 79
2019-12-04 19:00:00 9.4 12 Oeste 18 Oeste 0 -- -- 75
2019-12-04 18:00:00 9.3 5 Oeste 11 Oeste 0 -- -- 80
2019-12-04 17:00:00 9.8 2 Noroeste 9 Norte 0 -- -- 83
2019-12-04 16:00:00 10.1 4 Norte 19 Noroeste 0 -- -- 81
2019-12-04 15:00:00 10.2 12 Norte 20 Noroeste 0 -- -- 75
2019-12-04 14:00:00 10.5 14 Norte 22 Noroeste 0 -- -- 75
2019-12-04 13:00:00 9.9 12 Noroeste 25 Noroeste 0 -- -- 79
2019-12-04 12:00:00 9.6 10 Noroeste 26 Oeste 0 -- -- 82
2019-12-04 11:00:00 9.6 14 Oeste 28 Oeste 0 -- -- 79
2019-12-04 10:00:00 9.8 17 Oeste 33 Oeste 0 -- -- 75
2019-12-04 09:00:00 9.4 19 Oeste 29 Oeste 0 -- -- 77
2019-12-04 08:00:00 9.3 22 Noroeste 35 Noroeste 0 -- -- 78
2019-12-04 07:00:00 9.4 19 Noroeste 35 Noroeste 0 -- -- 79
2019-12-04 06:00:00 9.1 18 Noroeste 32 Oeste 0 -- -- 80
2019-12-04 05:00:00 8.9 17 Noroeste 33 Noroeste 0 -- -- 81
2019-12-04 04:00:00 8.5 21 Noroeste 28 Noroeste 0 -- -- 82
2019-12-04 03:00:00 8.1 18 Noroeste 30 Noroeste 0.2 -- -- 83
2019-12-04 02:00:00 7.7 17 Noroeste 33 Noroeste 0 -- -- 85
2019-12-04 01:00:00 7.4 17 Noroeste 31 Norte 0 -- -- 84
2019-12-04 00:00:00 6.7 19 Norte 39 Noroeste 0 -- -- 85
2019-12-03 23:00:00 6.5 21 Noroeste 46 Noroeste 0 -- -- 84
2019-12-03 22:00:00 6.5 29 Norte 41 Norte 0 -- -- 86
2019-12-03 21:00:00 6.4 21 Noroeste 35 Noroeste 0 -- -- 89
2019-12-03 20:00:00 6.8 22 Norte 37 Norte 0 -- -- 88
2019-12-03 19:00:00 6.9 21 Noroeste 37 Noroeste 1 -- -- 89
2019-12-03 18:00:00 7.5 18 Norte 40 Norte 0 -- -- 88
2019-12-03 17:00:00 7.3 24 Norte 38 Norte 1.6 -- -- 91
2019-12-03 16:00:00 7.9 23 Norte 34 Noroeste 1 -- -- 90
2019-12-03 15:00:00 8.4 18 Norte 26 Norte 0 -- -- 90
2019-12-03 14:00:00 8.4 12 Norte 33 Nordeste 0.2 -- -- 87
2019-12-03 13:00:00 8.2 7 Norte 22 Norte 0 -- -- 86
2019-12-03 12:00:00 7.9 16 Norte 27 Noroeste 0 -- -- 91
2019-12-03 11:00:00 8 17 Norte 35 Norte 0 -- -- 88
2019-12-03 10:00:00 8 30 Norte 41 Norte 0 -- -- 90
2019-12-03 09:00:00 7.5 25 Norte 37 Norte 0 -- -- 91
2019-12-03 08:00:00 7.8 22 Norte 31 Norte 0 -- -- 90
2019-12-03 07:00:00 7.8 21 Norte 33 Norte 0.2 -- -- 90
2019-12-03 06:00:00 7.4 17 Noroeste 30 Noroeste 4.4 -- -- 94
2019-12-03 05:00:00 7.8 25 Norte 36 Norte 2.8 -- -- 92
2019-12-03 04:00:00 8 21 Norte 45 Nordeste 3.6 -- -- 87
2019-12-03 03:00:00 8.8 24 Norte 37 Norte 2.8 -- -- 87
2019-12-03 02:00:00 9.2 13 Norte 31 Norte 1.6 -- -- 90
2019-12-03 01:00:00 8.9 15 Norte 26 Norte 3 -- -- 93
2019-12-03 00:00:00 8.8 14 Norte 27 Norte 2.6 -- -- 93
2019-12-02 23:00:00 9.3 15 Noroeste 22 Norte 0 -- -- 91
2019-12-02 22:00:00 9.1 5 Norte 13 Noroeste 1.6 -- -- 94
2019-12-02 21:00:00 9.1 8 Noroeste 14 Noroeste 0.4 -- -- 93
2019-12-02 20:00:00 9.2 6 Norte 11 Noroeste 0.4 -- -- 93
2019-12-02 19:00:00 9.2 5 Norte 9 Norte 0.4 -- -- 92
2019-12-02 18:00:00 9.4 8 Norte 14 Norte 0.4 -- -- 92
2019-12-02 17:00:00 9.6 3 Norte 13 Norte 0.8 -- -- 90
2019-12-02 16:00:00 9.8 11 Norte 21 Norte 0.6 -- -- 90
2019-12-02 15:00:00 10 14 Norte 19 Norte 0.2 -- -- 88
2019-12-02 14:00:00 10 13 Noroeste 21 Norte 0 -- -- 87
2019-12-02 13:00:00 10.6 13 Norte 21 Norte 0 -- -- 85
2019-12-02 12:00:00 9.9 14 Norte 22 Norte 0 -- -- 88
2019-12-02 11:00:00 9.6 5 Nordeste 17 Norte 0 -- -- 89
2019-12-02 10:00:00 9.1 10 Norte 22 Noroeste 0 -- -- 90
2019-12-02 09:00:00 8.3 16 Noroeste 24 Noroeste 0 -- -- 92
2019-12-02 08:00:00 8.4 13 Norte 19 Noroeste 0 -- -- 91
2019-12-02 07:00:00 8 13 Norte 21 Noroeste 0 -- -- 91
2019-12-02 06:00:00 8 12 Noroeste 26 Noroeste 0.2 -- -- 91
2019-12-02 05:00:00 8.3 13 Noroeste 21 Noroeste 0.2 -- -- 91
2019-12-02 04:00:00 8.6 6 Noroeste 21 Noroeste 3.6 -- -- 93
2019-12-02 03:00:00 8.8 3 Sudeste 8 Sudeste 3.8 -- -- 89
2019-12-02 02:00:00 9.1 4 Sudoeste 7 Sur 0 -- -- 84
2019-12-02 01:00:00 9.6 6 Noroeste 16 Noroeste 0 -- -- 82
2019-12-02 00:00:00 9.8 10 Noroeste 15 Noroeste 0 -- -- 84
2019-12-01 23:00:00 10.3 9 Noroeste 15 Noroeste 0 -- -- 81
2019-12-01 22:00:00 10.1 10 Noroeste 14 Noroeste 0 -- -- 62
2019-12-01 21:00:00 9.3 5 Norte 10 Noroeste 0 -- -- 65
2019-12-01 20:00:00 9.5 9 Noroeste 13 Nordeste 0 -- -- 60
2019-12-01 19:00:00 10 10 Norte 12 Norte 0 -- -- 54
2019-12-01 18:00:00 12.2 9 Sudoeste 25 Oeste 0 -- -- 43
2019-12-01 17:00:00 14.9 15 Oeste 29 Sudoeste 0 -- -- 35
2019-12-01 16:00:00 15.9 17 Sudoeste 30 Sudoeste 0 -- -- 34
2019-12-01 15:00:00 16.2 17 Oeste 30 Oeste 0 -- -- 33
2019-12-01 14:00:00 15.8 15 Oeste 32 Sudoeste 0 -- -- 42
2019-12-01 13:00:00 14.8 23 Oeste 39 Sudoeste 0 -- -- 48
2019-12-01 12:00:00 14.4 24 Sudoeste 41 Sudoeste 0 -- -- 54
2019-12-01 11:00:00 14.3 19 Sudoeste 35 Sudoeste 0 -- -- 58
2019-12-01 10:00:00 12.7 4 Sur 10 Este 0 -- -- 76
2019-12-01 09:00:00 9.8 5 Noroeste 14 Noroeste 0 -- -- 85
2019-12-01 08:00:00 9.4 5 Norte 15 Oeste 0 -- -- 85
2019-12-01 07:00:00 8.2 10 Norte 17 Norte 0 -- -- 85
2019-12-01 06:00:00 9.6 7 Noroeste 16 Noroeste 0 -- -- 81
2019-12-01 05:00:00 9.8 8 Noroeste 15 Noroeste 0 -- -- 79
2019-12-01 04:00:00 10 10 Noroeste 15 Norte 0 -- -- 80
2019-12-01 03:00:00 9.9 10 Norte 21 Noroeste 0 -- -- 78
2019-12-01 02:00:00 10.1 5 Norte 18 Oeste 0 -- -- 72
2019-12-01 01:00:00 11.2 13 Noroeste 18 Norte 0 -- -- 67
2019-12-01 00:00:00 11.2 6 Norte 18 Norte 0 -- -- 62
2019-11-30 23:00:00 11.4 6 Nordeste 15 Norte 0 -- -- 60
2019-11-30 22:00:00 10.9 3 Norte 14 Noroeste 0 -- -- 66
2019-11-30 21:00:00 10.6 5 Oeste 16 Norte 0 -- -- 77
2019-11-30 20:00:00 9.9 5 Noroeste 10 Noroeste 0 -- -- 85
2019-11-30 19:00:00 11.2 3 Norte 8 Noroeste 0 -- -- 82
2019-11-30 18:00:00 14.5 2 Nordeste 11 Sudeste 0 -- -- 72
2019-11-30 17:00:00 17.9 9 Sudeste 13 Este 0 -- -- 60
2019-11-30 16:00:00 19.9 6 Sudeste 14 Sudeste 0 -- -- 56
2019-11-30 15:00:00 19.9 10 Sudeste 15 Sudeste 0 -- -- 55
2019-11-30 14:00:00 19.3 10 Sudeste 15 Sudeste 0 -- -- 56
2019-11-30 13:00:00 18.3 6 Sudeste 11 Sur 0 -- -- 59
2019-11-30 12:00:00 16.1 4 Sudeste 8 Sur 0 -- -- 65
2019-11-30 11:00:00 13.7 2 Sur 8 Sur 0 -- -- 76
2019-11-30 10:00:00 12.1 6 Sur 15 Noroeste 0 -- -- 82
2019-11-30 09:00:00 9.4 11 Norte 19 Norte 0 -- -- 89
2019-11-30 08:00:00 8 17 Norte 22 Norte 0 -- -- 91
2019-11-30 07:00:00 8 14 Norte 21 Noroeste 0 -- -- 88
2019-11-30 06:00:00 8.8 14 Norte 18 Noroeste 0 -- -- 89
2019-11-30 05:00:00 9.6 12 Norte 17 Norte 0 -- -- 87
2019-11-30 04:00:00 8.7 3 Noroeste 9 Norte 0 -- -- 89
2019-11-30 03:00:00 9.5 6 Noroeste 18 Noroeste 0 -- -- 87
2019-11-30 02:00:00 8.8 8 Norte 17 Norte 0 -- -- 90
2019-11-30 01:00:00 9.5 15 Norte 18 Norte 0 -- -- 87
2019-11-30 00:00:00 9.9 8 Norte 16 Norte 0 -- -- 84
2019-11-29 23:00:00 10.5 10 Norte 14 Noroeste 0 -- -- 83
2019-11-29 22:00:00 10.6 6 Noroeste 10 Noroeste 0 -- -- 85
2019-11-29 21:00:00 9.8 8 Norte 9 Norte 0 -- -- 84
2019-11-29 20:00:00 11.3 5 Este 13 Noroeste 0 -- -- 80
2019-11-29 19:00:00 12.2 6 Noroeste 9 Noroeste 0 -- -- 79
2019-11-29 18:00:00 15.7 3 Norte 15 Este 0 -- -- 66
2019-11-29 17:00:00 18.5 5 Nordeste 16 Este 0 -- -- 59
2019-11-29 16:00:00 20.3 9 Sudeste 19 Norte 0 -- -- 51
2019-11-29 15:00:00 20.9 6 Este 14 Sudeste 0 -- -- 47
2019-11-29 14:00:00 20.5 3 Sur 11 Sudoeste 0 -- -- 49
2019-11-29 13:00:00 18.5 3 Norte 9 Norte 0 -- -- 53
2019-11-29 12:00:00 17.3 4 Sudeste 17 Noroeste 0 -- -- 56
2019-11-29 11:00:00 15.2 6 Nordeste 15 Noroeste 0 -- -- 60
2019-11-29 10:00:00 12.7 6 Norte 34 Oeste 0 -- -- 64
2019-11-29 09:00:00 10.2 18 Noroeste 35 Noroeste 0 -- -- 72
2019-11-29 08:00:00 8.9 21 Norte 31 Noroeste 0 -- -- 77
2019-11-29 07:00:00 8.8 13 Norte 22 Noroeste 0 -- -- 77
2019-11-29 06:00:00 9.1 11 Nordeste 37 Noroeste 0 -- -- 76
2019-11-29 05:00:00 10 16 Noroeste 34 Noroeste 0 -- -- 71
2019-11-29 04:00:00 9.5 22 Noroeste 38 Noroeste 0 -- -- 73
2019-11-29 03:00:00 10.1 26 Noroeste 37 Noroeste 0 -- -- 71
2019-11-29 02:00:00 9.6 22 Noroeste 35 Noroeste 0 -- -- 75
2019-11-29 01:00:00 9.6 23 Noroeste 33 Oeste 0 -- -- 77
2019-11-29 00:00:00 9.8 18 Noroeste 31 Noroeste 0 -- -- 76
2019-11-28 23:00:00 9.2 11 Norte 32 Oeste 0 -- -- 80
2019-11-28 22:00:00 11.2 4 Sudoeste 28 Noroeste 0 -- -- 75
2019-11-28 21:00:00 12.3 13 Oeste 29 Oeste 0 -- -- 73
2019-11-28 20:00:00 12.1 6 Norte 23 Sudoeste 0 -- -- 72
2019-11-28 19:00:00 14.2 15 Sudoeste 28 Oeste 0 -- -- 65
2019-11-28 18:00:00 14.7 7 Oeste 12 Oeste 0 -- -- 62
2019-11-28 17:00:00 17.3 5 Sudeste 14 Sudeste 0 -- -- 54
2019-11-28 16:00:00 19 4 Sudeste 12 Sudoeste 0 -- -- 51
2019-11-28 15:00:00 18.4 6 Sudoeste 19 Sudoeste 0 -- -- 52
2019-11-28 14:00:00 18.1 12 Sudoeste 16 Sudoeste 0 -- -- 53
2019-11-28 13:00:00 17.7 7 Sudeste 10 Sudeste 0 -- -- 50
2019-11-28 12:00:00 15.9 4 Este 11 Este 0 -- -- 56
2019-11-28 11:00:00 14.4 4 Sur 14 Sudoeste 0 -- -- 61
2019-11-28 10:00:00 12.9 4 Sudoeste 23 Noroeste 0 -- -- 63
2019-11-28 09:00:00 10.4 8 Noroeste 21 Noroeste 0 -- -- 76
2019-11-28 08:00:00 9.2 16 Noroeste 30 Oeste 0 -- -- 80
2019-11-28 07:00:00 10.5 14 Oeste 41 Oeste 0 -- -- 75
2019-11-28 06:00:00 10.9 27 Oeste 44 Oeste 0 -- -- 73
2019-11-28 05:00:00 10.5 19 Oeste 30 Oeste 0 -- -- 74
2019-11-28 04:00:00 9.7 10 Oeste 21 Oeste 0 -- -- 73
2019-11-28 03:00:00 7.9 4 Norte 11 Nordeste 0 -- -- 76
2019-11-28 02:00:00 8.2 3 Sudoeste 12 Norte 0 -- -- 78
2019-11-28 01:00:00 8.7 4 Norte 9 Este 0 -- -- 76
2019-11-28 00:00:00 8.4 0 Calma 9 Sudeste 0 -- -- 77
2019-11-27 23:00:00 9.3 2 Noroeste 17 Noroeste 0 -- -- 70
2019-11-27 22:00:00 9.5 4 Sudoeste 14 Sudoeste 0 -- -- 72
2019-11-27 21:00:00 10 8 Noroeste 15 Oeste 0 -- -- 68
2019-11-27 20:00:00 8.4 5 Norte 9 Norte 0 -- -- 75
2019-11-27 19:00:00 12 5 Oeste 20 Oeste 0 -- -- 60
2019-11-27 18:00:00 14.2 7 Sudoeste 27 Sudoeste 0 -- -- 53
2019-11-27 17:00:00 16.5 16 Sudoeste 36 Oeste 0 -- -- 49
2019-11-27 16:00:00 17.5 21 Oeste 39 Sudoeste 0 -- -- 45
2019-11-27 15:00:00 18 19 Oeste 36 Oeste 0 -- -- 46
2019-11-27 14:00:00 17.9 18 Oeste 43 Sudoeste 0 -- -- 51
2019-11-27 06:00:00 -- -- -- -- -- -- -- -- --
2019-11-27 05:00:00 -- -- -- -- -- -- -- -- --
2019-11-27 04:00:00 -- -- -- -- -- -- -- -- --
2019-11-27 03:00:00 13.1 7 Oeste 31 Noroeste 0 -- -- 74
2019-11-27 02:00:00 13.2 7 Oeste 27 Sudoeste 0 -- -- 71
2019-11-27 01:00:00 14.1 18 Oeste 39 Oeste 0 -- -- 70
2019-11-27 00:00:00 14.3 22 Oeste 37 Oeste 0 -- -- 70
2019-11-26 23:00:00 13.9 5 Sudeste 28 Sudoeste 0 -- -- 74
2019-11-26 22:00:00 14.6 18 Sudoeste 39 Oeste 0 -- -- 73
2019-11-26 21:00:00 15.4 26 Sudoeste 40 Oeste 0 -- -- 72
2019-11-26 20:00:00 15.3 11 Sudoeste 30 Sudoeste 0 -- -- 69
2019-11-26 19:00:00 16 12 Oeste 33 Oeste 0 -- -- 67
2019-11-26 18:00:00 16.1 11 Sudoeste 25 Oeste 0 -- -- 68
2019-11-26 17:00:00 17.2 14 Oeste 26 Sudoeste 0 -- -- 64
2019-11-26 16:00:00 18 13 Oeste 24 Oeste 0 -- -- 60
2019-11-26 15:00:00 18.4 12 Sudoeste 27 Sudoeste 0 -- -- 56
2019-11-26 14:00:00 18.9 13 Sudoeste 21 Oeste 0 -- -- 52
2019-11-26 13:00:00 18 12 Sudoeste 19 Sudoeste 0 -- -- 53
2019-11-26 12:00:00 17 8 Sudoeste 17 Oeste 0 -- -- 58
2019-11-26 11:00:00 15.4 9 Oeste 38 Oeste 0 -- -- 66
2019-11-26 10:00:00 13.5 9 Oeste 22 Oeste 0 -- -- 75
2019-11-26 09:00:00 10.6 4 Sudeste 23 Noroeste 0 -- -- 85
2019-11-26 08:00:00 8.8 9 Norte 19 Noroeste 0 -- -- 86
2019-11-26 07:00:00 9.4 14 Noroeste 22 Norte 0 -- -- 87
2019-11-26 06:00:00 9.3 9 Noroeste 17 Noroeste 0 -- -- 88
2019-11-26 05:00:00 10.6 14 Noroeste 20 Noroeste 0 -- -- 82
2019-11-26 04:00:00 11 10 Oeste 14 Oeste 0 -- -- 82
2019-11-26 03:00:00 10.2 7 Noroeste 15 Oeste 0 -- -- 82
2019-11-26 02:00:00 12.9 12 Oeste 19 Oeste 0 -- -- 77
2019-11-26 01:00:00 10.5 4 Norte 8 Nordeste 0 -- -- 82
2019-11-26 00:00:00 13.7 4 Oeste 22 Noroeste 0 -- -- 70
2019-11-25 23:00:00 14.4 13 Oeste 23 Oeste 0 -- -- 67
2019-11-25 22:00:00 12 6 Norte 24 Noroeste 0 -- -- 77
2019-11-25 21:00:00 10.4 5 Norte 14 Sudoeste 0 -- -- 84
2019-11-25 20:00:00 12.3 3 Oeste 22 Oeste 0 -- -- 78
2019-11-25 19:00:00 11.8 10 Noroeste 14 Noroeste 0 -- -- 84
2019-11-25 18:00:00 13.1 9 Oeste 13 Oeste 0 -- -- 81
2019-11-25 17:00:00 16 9 Sudoeste 27 Sudoeste 0 -- -- 72
2019-11-25 16:00:00 15.7 17 Sudoeste 28 Sudoeste 0 -- -- 72
2019-11-25 15:00:00 15.9 12 Oeste 42 Sudoeste 0 -- -- 70
2019-11-25 14:00:00 15.5 26 Oeste 42 Oeste 0 -- -- 69
2019-11-25 13:00:00 15.5 15 Sudoeste 31 Oeste 0 -- -- 70
2019-11-25 12:00:00 14.4 20 Oeste 41 Oeste 0 -- -- 71
2019-11-25 11:00:00 13.2 25 Sudoeste 43 Sudoeste 0 -- -- 74
2019-11-25 10:00:00 12.4 14 Oeste 28 Sudoeste 0 -- -- 72
2019-11-25 09:00:00 9.8 3 Norte 9 Noroeste 0 -- -- 77
2019-11-25 08:00:00 7.6 6 Norte 14 Noroeste 0 -- -- 78
2019-11-25 07:00:00 8.9 10 Sudoeste 32 Oeste 0 -- -- 75
2019-11-25 06:00:00 8.5 4 Nordeste 17 Nordeste 0 -- -- 75
2019-11-25 05:00:00 8.6 8 Sudeste 17 Nordeste 0 -- -- 75
2019-11-25 04:00:00 8.1 3 Sudeste 23 Norte 0 -- -- 74
2019-11-25 03:00:00 8.6 6 Este 27 Sudoeste 0 -- -- 71
2019-11-25 02:00:00 9.3 10 Sudoeste 32 Sudoeste 0 -- -- 69
2019-11-25 01:00:00 9.2 9 Sudoeste 41 Oeste 0 -- -- 69
2019-11-25 00:00:00 9.2 27 Oeste 54 Oeste 0 -- -- 67
2019-11-24 23:00:00 9.3 33 Oeste 55 Oeste 0 -- -- 62
2019-11-24 22:00:00 9 15 Oeste 37 Sudoeste 0 -- -- 55
2019-11-24 21:00:00 8.7 7 Sudoeste 30 Oeste 0 -- -- 53
2019-11-24 20:00:00 9.2 17 Oeste 33 Oeste 0 -- -- 51
2019-11-24 19:00:00 9.2 9 Oeste 24 Noroeste 0 -- -- 55
2019-11-24 18:00:00 10.9 12 Oeste 23 Oeste 0 -- -- 48
2019-11-24 17:00:00 12.8 14 Sudoeste 23 Sudoeste 0 -- -- 48
2019-11-24 16:00:00 13.4 16 Oeste 28 Oeste 0 -- -- 46
2019-11-24 15:00:00 12.6 15 Sudoeste 26 Sudoeste 0 -- -- 54
2019-11-24 14:00:00 12.6 12 Sudoeste 32 Oeste 0 -- -- 54
2019-11-24 13:00:00 12.7 18 Oeste 32 Oeste 0 -- -- 52
2019-11-24 12:00:00 12.3 16 Oeste 45 Oeste 0 -- -- 51
2019-11-24 11:00:00 10.7 23 Oeste 37 Oeste 0 -- -- 55
2019-11-24 10:00:00 10 18 Oeste 33 Oeste 0 -- -- 56
2019-11-24 09:00:00 8.1 14 Noroeste 28 Oeste 0 -- -- 62
2019-11-24 08:00:00 7.5 22 Noroeste 47 Oeste 0 -- -- 66
2019-11-24 07:00:00 7.9 31 Oeste 46 Oeste 0 -- -- 64
2019-11-24 06:00:00 8.3 26 Oeste 40 Oeste 0 -- -- 63
2019-11-24 05:00:00 8.2 20 Oeste 36 Oeste 0 -- -- 62
2019-11-24 04:00:00 8.3 27 Oeste 45 Oeste 0 -- -- 64
2019-11-24 03:00:00 8.5 24 Oeste 46 Sudoeste 0 -- -- 63
2019-11-24 02:00:00 9 21 Oeste 44 Oeste 0 -- -- 57
2019-11-24 01:00:00 8.5 18 Oeste 39 Oeste 0 -- -- 59
2019-11-24 00:00:00 7.8 10 Oeste 20 Sudoeste 0 -- -- 61
2019-11-23 23:00:00 7.4 3 Noroeste 19 Noroeste 0 -- -- 61
2019-11-23 22:00:00 7.9 8 Norte 32 Oeste 0 -- -- 60
2019-11-23 21:00:00 9 14 Oeste 28 Sudoeste 0 -- -- 55
2019-11-23 20:00:00 9.4 21 Oeste 41 Noroeste 0 -- -- 54
2019-11-23 19:00:00 9.9 21 Oeste 41 Oeste 0 -- -- 50
2019-11-23 18:00:00 10.6 22 Oeste 42 Oeste 0 -- -- 48
2019-11-23 17:00:00 11.8 18 Oeste 45 Oeste 0 -- -- 42
2019-11-23 16:00:00 12.7 26 Oeste 49 Noroeste 0 -- -- 41
2019-11-23 15:00:00 13.1 31 Noroeste 59 Oeste 0 -- -- 41
2019-11-23 14:00:00 13.3 29 Oeste 54 Noroeste 0 -- -- 42
2019-11-23 13:00:00 11.6 14 Oeste 65 Oeste 0 -- -- 49
2019-11-23 12:00:00 12.1 41 Oeste 107 Oeste 0 -- -- 49
2019-11-23 11:00:00 11.2 47 Oeste 79 Oeste 0 -- -- 53
2019-11-23 10:00:00 10.5 37 Oeste 68 Oeste 0 -- -- 56
2019-11-23 09:00:00 9.2 35 Oeste 58 Oeste 0 -- -- 65
2019-11-23 08:00:00 7.8 16 Oeste 34 Sudoeste 0 -- -- 78
2019-11-23 07:00:00 8.2 19 Sudoeste 50 Sudoeste 0.2 -- -- 79
2019-11-23 06:00:00 8.6 27 Sudoeste 74 Oeste 1.2 -- -- 78
2019-11-23 05:00:00 10.8 39 Oeste 91 Oeste 0 -- -- 60
2019-11-23 04:00:00 11.1 57 Oeste 94 Oeste 0 -- -- 57
2019-11-23 03:00:00 11.2 51 Oeste 84 Oeste 0 -- -- 62
2019-11-23 02:00:00 11.2 31 Oeste 68 Oeste 0 -- -- 64
2019-11-23 01:00:00 11.7 32 Oeste 68 Oeste 0 -- -- 62
2019-11-23 00:00:00 11.8 22 Oeste 39 Oeste 0 -- -- 70
2019-11-22 23:00:00 9.1 5 Norte 13 Sudoeste 0.2 -- -- 97
2019-11-22 22:00:00 9.2 3 Nordeste 8 Este 0 -- -- 95
2019-11-22 21:00:00 10.2 4 Sur 9 Sudeste 0 -- -- 96
2019-11-22 20:00:00 10.4 7 Sudeste 14 Sudeste 2.4 -- -- 96
2019-11-22 19:00:00 10.6 9 Sudeste 14 Sudeste 4 -- -- 95
2019-11-22 18:00:00 11.1 4 Sudeste 13 Sudeste 2.2 -- -- 94
2019-11-22 17:00:00 11.8 9 Sudeste 19 Sur 0.6 -- -- 93
2019-11-22 16:00:00 12.1 12 Sur 25 Sudeste 0.8 -- -- 91
2019-11-22 15:00:00 12.3 14 Sudeste 21 Sudeste 0 -- -- 88
2019-11-22 14:00:00 12.4 10 Sudeste 17 Sudeste 0 -- -- 86
2019-11-22 13:00:00 12.6 4 Sur 8 Sur 0 -- -- 84
2019-11-22 12:00:00 11 2 Sudoeste 8 Sudeste 0 -- -- 90
2019-11-22 11:00:00 10.5 4 Sudoeste 5 Sudoeste 0.2 -- -- 92
2019-11-22 10:00:00 9.5 3 Nordeste 12 Este 0 -- -- 94
2019-11-22 09:00:00 8.8 5 Noroeste 8 Noroeste 0 -- -- 92
2019-11-22 08:00:00 7.4 3 Nordeste 8 Noroeste 0 -- -- 94
2019-11-22 07:00:00 7.1 5 Norte 6 Norte 0 -- -- 94
2019-11-22 06:00:00 6.6 2 Norte 8 Nordeste 0 -- -- 94
2019-11-22 05:00:00 6.1 4 Norte 10 Sudoeste 0 -- -- 93
2019-11-22 04:00:00 7.3 5 Noroeste 12 Norte 0 -- -- 93
2019-11-22 03:00:00 7.3 9 Norte 13 Noroeste 0 -- -- 92
2019-11-22 02:00:00 7.9 8 Norte 12 Noroeste 0 -- -- 91
2019-11-22 01:00:00 8.4 9 Noroeste 13 Noroeste 0 -- -- 93
2019-11-22 00:00:00 8.4 5 Noroeste 7 Noroeste 0 -- -- 93
2019-11-21 23:00:00 9.1 0 Calma 6 Este 0 -- -- 91
2019-11-21 22:00:00 9.8 3 Oeste 12 Oeste 0.4 -- -- 88
2019-11-21 21:00:00 10.7 8 Sudoeste 18 Oeste 0.4 -- -- 85
2019-11-21 20:00:00 11 5 Sudoeste 11 Sudoeste 0 -- -- 79
2019-11-21 19:00:00 11.9 6 Sudoeste 14 Sudoeste 0 -- -- 72
2019-11-21 18:00:00 12.3 4 Sudoeste 14 Sudoeste 0 -- -- 69
2019-11-21 17:00:00 13.2 10 Sudeste 21 Sudoeste 0 -- -- 67
2019-11-21 16:00:00 14.6 7 Sur 12 Sudoeste 0 -- -- 57
2019-11-21 15:00:00 13.6 7 Sudoeste 23 Sudoeste 0 -- -- 65
2019-11-21 14:00:00 13.2 5 Sur 17 Sudoeste 0 -- -- 66
2019-11-21 13:00:00 12 7 Sudoeste 20 Sudoeste 0 -- -- 72
2019-11-21 12:00:00 11.2 13 Oeste 22 Oeste 0 -- -- 73
2019-11-21 11:00:00 10.7 12 Sudoeste 23 Oeste 0 -- -- 74
2019-11-21 10:00:00 9.7 15 Oeste 24 Oeste 0 -- -- 77
2019-11-21 09:00:00 8.6 9 Sudoeste 32 Oeste 0 -- -- 77
2019-11-21 08:00:00 8.9 19 Oeste 32 Oeste 0 -- -- 74
2019-11-21 07:00:00 8.9 17 Oeste 34 Oeste 0 -- -- 74
2019-11-21 06:00:00 8.8 22 Oeste 38 Sudoeste 0 -- -- 76
2019-11-21 05:00:00 8.8 13 Oeste 23 Oeste 0 -- -- 76
2019-11-21 04:00:00 6.6 5 Nordeste 25 Noroeste 0 -- -- 83
2019-11-21 03:00:00 5.6 3 Nordeste 9 Nordeste 0 -- -- 87
2019-11-21 02:00:00 6.9 8 Norte 14 Nordeste 0 -- -- 84
2019-11-21 01:00:00 7 4 Noroeste 17 Oeste 0 -- -- 83
2019-11-21 00:00:00 6.3 3 Noroeste 11 Norte 0 -- -- 83
2019-11-20 23:00:00 6.4 2 Nordeste 8 Oeste 0 -- -- 83
2019-11-20 22:00:00 7.4 4 Oeste 14 Noroeste 0 -- -- 79
2019-11-20 21:00:00 7.6 0 Calma 11 Noroeste 0 -- -- 79
2019-11-20 20:00:00 7.5 3 Oeste 17 Noroeste 0 -- -- 77
2019-11-20 19:00:00 7.8 11 Noroeste 16 Oeste 0 -- -- 77
2019-11-20 18:00:00 8.1 7 Oeste 36 Oeste 0.4 -- -- 73
2019-11-20 17:00:00 9.1 23 Oeste 37 Oeste 0 -- -- 65
2019-11-20 16:00:00 12.1 11 Sudeste 18 Sudeste 0 -- -- 57
2019-11-20 15:00:00 13.8 10 Sudeste 19 Sudeste 0 -- -- 51
2019-11-20 14:00:00 14 10 Sur 19 Sudeste 0 -- -- 49
2019-11-20 13:00:00 12.9 9 Sudeste 12 Sudeste 0 -- -- 47
2019-11-20 12:00:00 11.8 4 Sudeste 9 Sur 0 -- -- 55
2019-11-20 11:00:00 9.2 2 Norte 10 Nordeste 0 -- -- 64
2019-11-20 10:00:00 6.4 3 Este 12 Norte 0 -- -- 78
2019-11-20 09:00:00 2.3 2 Norte 4 Nordeste 0 -- -- 89
2019-11-20 08:00:00 1 3 Sudoeste 17 Norte 0 -- -- 86
2019-11-20 07:00:00 2.1 9 Norte 13 Norte 0 -- -- 85
2019-11-20 06:00:00 0.8 0 Calma 6 Sudoeste 0 -- -- 90
2019-11-20 05:00:00 1.2 0 Calma 4 Noroeste 0 -- -- 91
2019-11-20 04:00:00 2.2 0 Calma 4 Sur 0 -- -- 90
2019-11-20 03:00:00 3.3 3 Noroeste 9 Oeste 0 -- -- 92
2019-11-20 02:00:00 2.6 0 Calma 5 Sudoeste 0 -- -- 92
2019-11-20 01:00:00 2.7 0 Calma 3 Sudoeste 0 -- -- 91
2019-11-20 00:00:00 3.4 0 Calma 5 Oeste 0 -- -- 90
2019-11-19 23:00:00 4.2 0 Calma 13 Noroeste 0 -- -- 90
2019-11-19 22:00:00 4.8 9 Noroeste 13 Noroeste 0 -- -- 90
2019-11-19 21:00:00 5.1 3 Noroeste 6 Noroeste 0 -- -- 87
2019-11-19 20:00:00 7 3 Norte 6 Noroeste 0 -- -- 83
2019-11-19 19:00:00 7.3 3 Norte 9 Este 0 -- -- 83
2019-11-19 18:00:00 9.3 3 Sudeste 12 Sudeste 0 -- -- 69
2019-11-19 17:00:00 11.6 8 Sudeste 13 Sudeste 0 -- -- 49
2019-11-19 16:00:00 13.3 7 Sudeste 14 Este 0 -- -- 40
2019-11-19 15:00:00 13.4 9 Este 15 Este 0 -- -- 41
2019-11-19 14:00:00 13.7 5 Sur 17 Sudoeste 0 -- -- 41
2019-11-19 13:00:00 11.9 8 Sudoeste 17 Oeste 0 -- -- 46
2019-11-19 12:00:00 10.3 8 Oeste 31 Oeste 0 -- -- 54
2019-11-19 11:00:00 8.2 14 Noroeste 21 Oeste 0 -- -- 61
2019-11-19 10:00:00 7.7 7 Este 17 Noroeste 0 -- -- 62
2019-11-19 09:00:00 4.4 10 Norte 15 Norte 0 -- -- 72
2019-11-19 08:00:00 4.1 9 Oeste 24 Norte 0 -- -- 69
2019-11-19 07:00:00 5 14 Oeste 24 Oeste 0 -- -- 69
2019-11-19 06:00:00 5.8 13 Oeste 24 Oeste 0 -- -- 64
2019-11-19 05:00:00 1.3 6 Nordeste 11 Nordeste 0 -- -- 82
2019-11-19 04:00:00 2.3 3 Nordeste 14 Norte 0 -- -- 76
2019-11-19 03:00:00 1.8 3 Este 14 Noroeste 0 -- -- 76
2019-11-19 02:00:00 3.9 10 Noroeste 14 Norte 0 -- -- 71
2019-11-19 01:00:00 4.2 10 Noroeste 15 Noroeste 0 -- -- 69
2019-11-19 00:00:00 5.5 9 Noroeste 26 Oeste 0 -- -- 62
2019-11-18 23:00:00 7.4 15 Oeste 25 Oeste 0 -- -- 54
2019-11-18 22:00:00 7.6 12 Oeste 25 Oeste 0 -- -- 54
2019-11-18 21:00:00 7.6 12 Oeste 38 Noroeste 0 -- -- 55
2019-11-18 20:00:00 8.1 17 Oeste 28 Noroeste 0 -- -- 51
2019-11-18 19:00:00 8.2 14 Noroeste 27 Noroeste 0 -- -- 53
2019-11-18 18:00:00 9.2 14 Noroeste 36 Noroeste 0 -- -- 51
2019-11-18 17:00:00 10.7 21 Noroeste 35 Noroeste 0 -- -- 48
2019-11-18 16:00:00 11.5 18 Noroeste 29 Noroeste 0 -- -- 46
2019-11-18 15:00:00 12.3 26 Noroeste 37 Noroeste 0 -- -- 45
2019-11-18 14:00:00 12.9 19 Noroeste 34 Noroeste 0 -- -- 47
2019-11-18 13:00:00 11.9 21 Noroeste 39 Noroeste 0 -- -- 51
2019-11-18 12:00:00 11.4 25 Noroeste 44 Noroeste 0 -- -- 53
2019-11-18 11:00:00 10.6 23 Noroeste 41 Noroeste 0 -- -- 57
2019-11-18 10:00:00 9.2 25 Noroeste 37 Noroeste 0 -- -- 60
2019-11-18 09:00:00 7.6 17 Oeste 33 Oeste 0 -- -- 68
2019-11-18 08:00:00 7.1 21 Noroeste 35 Noroeste 0 -- -- 70
2019-11-18 07:00:00 7.7 17 Noroeste 30 Noroeste 0.2 -- -- 73
2019-11-18 06:00:00 7.1 13 Norte 23 Noroeste 0 -- -- 87
2019-11-18 05:00:00 7.1 8 Norte 30 Norte 2 -- -- 89
2019-11-18 04:00:00 7.8 20 Norte 35 Norte 0.8 -- -- 84
2019-11-18 03:00:00 10.2 5 Noroeste 17 Sudoeste 0.4 -- -- 81
2019-11-18 02:00:00 10.2 13 Noroeste 32 Oeste 0 -- -- 80
2019-11-18 01:00:00 11 17 Sudoeste 47 Sudoeste 0.2 -- -- 80
2019-11-18 00:00:00 11.1 22 Sudoeste 41 Oeste 0 -- -- 76
2019-11-17 23:00:00 11 24 Sudoeste 41 Oeste 0 -- -- 74
2019-11-17 22:00:00 10.7 13 Sudoeste 24 Sudoeste 0 -- -- 74
2019-11-17 21:00:00 10.1 11 Oeste 24 Oeste 0 -- -- 75
2019-11-17 20:00:00 9.4 17 Sudoeste 38 Oeste 0 -- -- 77
2019-11-17 19:00:00 8.9 11 Sudoeste 32 Sudoeste 0 -- -- 77
2019-11-17 18:00:00 9.6 13 Oeste 31 Oeste 0 -- -- 71
2019-11-17 17:00:00 12.2 11 Oeste 37 Oeste 0 -- -- 60
2019-11-17 16:00:00 13.2 23 Sudoeste 39 Sudoeste 0 -- -- 55
2019-11-17 15:00:00 13.2 19 Sudoeste 35 Sudoeste 0 -- -- 51
2019-11-17 14:00:00 11.5 19 Sudoeste 33 Sudoeste 0 -- -- 49
2019-11-17 13:00:00 11 16 Sudoeste 37 Oeste 0 -- -- 48
2019-11-17 12:00:00 9.8 13 Oeste 29 Noroeste 0 -- -- 49
2019-11-17 11:00:00 8.8 19 Sudoeste 33 Oeste 0 -- -- 49
2019-11-17 10:00:00 8.7 10 Sudoeste 20 Sudoeste 0 -- -- 47
2019-11-17 09:00:00 5.5 6 Este 14 Norte 0 -- -- 61
2019-11-17 08:00:00 -1.8 4 Norte 9 Norte 0 -- -- 82
2019-11-17 07:00:00 -0.6 4 Norte 11 Noroeste 0 -- -- 76
2019-11-17 06:00:00 -0.1 7 Norte 12 Norte 0 -- -- 77
2019-11-17 05:00:00 3.4 3 Noroeste 24 Sudoeste 0 -- -- 65
2019-11-17 04:00:00 3.1 5 Sudoeste 15 Sudoeste 0 -- -- 68
2019-11-17 03:00:00 3.8 4 Oeste 14 Sudoeste 0 -- -- 65
2019-11-17 02:00:00 3.4 5 Noroeste 23 Oeste 0 -- -- 66
2019-11-17 01:00:00 4 4 Noroeste 20 Oeste 0 -- -- 65
2019-11-17 00:00:00 4 8 Noroeste 21 Sudoeste 0 -- -- 62
2019-11-16 23:00:00 3.1 6 Nordeste 12 Norte 0 -- -- 63
2019-11-16 22:00:00 5.7 6 Noroeste 27 Oeste 0 -- -- 53
2019-11-16 21:00:00 6.1 9 Oeste 18 Oeste 0 -- -- 49
2019-11-16 20:00:00 6.2 3 Noroeste 17 Oeste 0 -- -- 50
2019-11-16 19:00:00 7.1 9 Oeste 21 Noroeste 0 -- -- 48
2019-11-16 18:00:00 8.7 11 Oeste 28 Noroeste 0 -- -- 43
2019-11-16 17:00:00 10.6 18 Oeste 29 Oeste 0 -- -- 39
2019-11-16 16:00:00 11.7 21 Oeste 31 Noroeste 0 -- -- 36
2019-11-16 15:00:00 12 19 Noroeste 36 Noroeste 0 -- -- 36
2019-11-16 14:00:00 12.2 20 Noroeste 38 Oeste 0 -- -- 36
2019-11-16 13:00:00 11.6 23 Noroeste 35 Noroeste 0 -- -- 36
2019-11-16 12:00:00 10.7 19 Noroeste 33 Noroeste 0 -- -- 38
2019-11-16 11:00:00 9.5 15 Noroeste 26 Noroeste 0 -- -- 45
2019-11-16 10:00:00 7.5 10 Oeste 23 Oeste 0 -- -- 51
2019-11-16 09:00:00 5.8 8 Oeste 24 Noroeste 0 -- -- 56
2019-11-16 08:00:00 3.6 13 Oeste 21 Noroeste 0 -- -- 65
2019-11-16 07:00:00 3.1 6 Noroeste 23 Oeste 0 -- -- 66
2019-11-16 06:00:00 4.8 15 Oeste 26 Oeste 0 -- -- 61
2019-11-16 05:00:00 4.6 16 Oeste 29 Oeste 0 -- -- 62
2019-11-16 04:00:00 4.9 19 Oeste 33 Oeste 0 -- -- 62
2019-11-16 03:00:00 4.4 19 Oeste 33 Oeste 0 -- -- 66
2019-11-16 02:00:00 4.4 17 Oeste 32 Oeste 0 -- -- 65
2019-11-16 01:00:00 4.6 17 Oeste 30 Oeste 0 -- -- 64
2019-11-16 00:00:00 4.9 18 Oeste 30 Oeste 0 -- -- 61
2019-11-15 23:00:00 4.7 12 Oeste 23 Oeste 0 -- -- 60
2019-11-15 22:00:00 4.1 12 Noroeste 19 Oeste 0 -- -- 62
2019-11-15 21:00:00 3.6 7 Norte 14 Oeste 0 -- -- 63
2019-11-15 20:00:00 5.6 12 Oeste 26 Oeste 0 -- -- 56
2019-11-15 19:00:00 5.9 13 Oeste 21 Oeste 0 -- -- 54
2019-11-15 18:00:00 7 11 Noroeste 22 Oeste 0 -- -- 50
2019-11-15 17:00:00 8.7 15 Noroeste 31 Noroeste 0 -- -- 44
2019-11-15 16:00:00 10.1 19 Oeste 31 Oeste 0 -- -- 41
2019-11-15 15:00:00 10 18 Oeste 32 Oeste 0 -- -- 40
2019-11-15 14:00:00 8.6 22 Oeste 40 Noroeste 0 -- -- 44
2019-11-15 13:00:00 9.9 19 Oeste 32 Oeste 0 -- -- 43
2019-11-15 12:00:00 9 21 Sudoeste 30 Sudoeste 0 -- -- 49
2019-11-15 11:00:00 7.6 13 Sudoeste 29 Sudoeste 0 -- -- 57
2019-11-15 10:00:00 6.2 19 Sudoeste 32 Sudoeste 0 -- -- 62
2019-11-15 09:00:00 6 12 Sudoeste 23 Sudoeste 0 -- -- 62
2019-11-15 08:00:00 5 2 Este 18 Oeste 0 -- -- 66
2019-11-15 07:00:00 5.8 5 Oeste 17 Oeste 0 -- -- 62
2019-11-15 06:00:00 6.4 12 Oeste 22 Sudoeste 0 -- -- 61
2019-11-15 05:00:00 5.2 3 Noroeste 18 Oeste 0 -- -- 65
2019-11-15 04:00:00 5.9 7 Nordeste 23 Nordeste 0 -- -- 60
2019-11-15 03:00:00 6.9 7 Sudeste 68 Oeste 0 -- -- 58
2019-11-15 02:00:00 7.5 42 Oeste 71 Oeste 0 -- -- 58
2019-11-15 01:00:00 7.4 37 Oeste 79 Oeste 0 -- -- 64
2019-11-15 00:00:00 7.4 44 Oeste 77 Sudoeste 0 -- -- 64
2019-11-14 23:00:00 7.6 40 Oeste 68 Oeste 0 -- -- 63
2019-11-14 22:00:00 7.8 49 Oeste 71 Oeste 0 -- -- 60
2019-11-14 21:00:00 7.9 36 Oeste 63 Oeste 0 -- -- 60
2019-11-14 20:00:00 8.1 26 Oeste 67 Oeste 0 -- -- 58
2019-11-14 19:00:00 8.7 33 Oeste 58 Oeste 0 -- -- 56
2019-11-14 18:00:00 9.5 24 Oeste 48 Sudoeste 0 -- -- 51
2019-11-14 17:00:00 10.3 25 Oeste 48 Oeste 0 -- -- 48
2019-11-14 16:00:00 10.2 21 Oeste 42 Noroeste 0.2 -- -- 60
2019-11-14 15:00:00 12.5 20 Sudoeste 35 Oeste 0 -- -- 59
2019-11-14 14:00:00 13.5 21 Sudoeste 45 Oeste 0 -- -- 56
2019-11-14 13:00:00 12.4 15 Sudoeste 59 Sudoeste 0 -- -- 59
2019-11-14 12:00:00 12.1 25 Sudoeste 48 Sudoeste 0 -- -- 57
2019-11-14 11:00:00 11.6 18 Sudoeste 44 Sudoeste 0 -- -- 56
2019-11-14 10:00:00 11.1 29 Oeste 55 Sudoeste 0 -- -- 62
2019-11-14 09:00:00 10.9 31 Sudoeste 49 Sudoeste 0 -- -- 66
2019-11-14 08:00:00 10.3 8 Sudoeste 36 Sudoeste 0 -- -- 66
2019-11-14 07:00:00 10.6 19 Sudoeste 45 Sudoeste 0 -- -- 69
2019-11-14 06:00:00 11.1 30 Sudoeste 50 Sudoeste 0 -- -- 69
2019-11-14 05:00:00 10.3 3 Noroeste 14 Sudeste 0 -- -- 73
2019-11-14 04:00:00 11.3 4 Sudoeste 13 Este 0 -- -- 71
2019-11-14 03:00:00 12.1 8 Sudoeste 31 Sudoeste 0 -- -- 69
2019-11-14 02:00:00 12.8 14 Sudoeste 33 Sudoeste 0 -- -- 66
2019-11-14 01:00:00 12.3 6 Oeste 21 Sudoeste 0 -- -- 67
2019-11-14 00:00:00 12.3 12 Sudoeste 20 Sudoeste 0 -- -- 69
2019-11-13 23:00:00 11.5 9 Sudoeste 16 Sudoeste 0 -- -- 72
2019-11-13 22:00:00 11 3 Sur 9 Sudoeste 0 -- -- 69
2019-11-13 21:00:00 12.3 8 Oeste 16 Oeste 0 -- -- 66
2019-11-13 20:00:00 13.4 13 Sudoeste 27 Sudoeste 0 -- -- 63
2019-11-13 19:00:00 14.2 10 Sudoeste 23 Oeste 0 -- -- 60
2019-11-13 18:00:00 16.3 17 Oeste 39 Oeste 0 -- -- 48
2019-11-13 17:00:00 18.3 17 Sudoeste 35 Sudoeste 0 -- -- 44
2019-11-13 16:00:00 19.1 15 Oeste 48 Noroeste 0 -- -- 42
2019-11-13 15:00:00 19.4 30 Oeste 50 Noroeste 0 -- -- 42
2019-11-13 14:00:00 19.7 28 Oeste 49 Oeste 0 -- -- 42
2019-11-13 13:00:00 19.2 30 Oeste 44 Oeste 0 -- -- 45
2019-11-13 12:00:00 17.9 21 Sudoeste 36 Oeste 0 -- -- 52
2019-11-13 11:00:00 16.1 21 Sudoeste 36 Sudoeste 0 -- -- 58
2019-11-13 10:00:00 14.4 20 Sudoeste 44 Sudoeste 0 -- -- 63
2019-11-13 09:00:00 12.3 28 Sudoeste 52 Oeste 0 -- -- 69
2019-11-13 08:00:00 11.5 20 Oeste 36 Oeste 0 -- -- 69
2019-11-13 07:00:00 11 14 Oeste 46 Oeste 0 -- -- 68
2019-11-13 06:00:00 11.2 21 Oeste 49 Oeste 0 -- -- 65
2019-11-13 05:00:00 10.9 27 Oeste 46 Oeste 0 -- -- 64
2019-11-13 04:00:00 11.2 27 Oeste 48 Sudoeste 0 -- -- 61
2019-11-13 03:00:00 11.1 18 Oeste 38 Oeste 0 -- -- 57
2019-11-13 02:00:00 10.7 16 Sudoeste 35 Sudoeste 0 -- -- 57
2019-11-13 01:00:00 10.7 14 Sudoeste 32 Oeste 0 -- -- 56
2019-11-13 00:00:00 10.7 13 Sudoeste 32 Sudoeste 0 -- -- 59
2019-11-12 23:00:00 9.3 4 Sudeste 14 Sudoeste 0 -- -- 62
2019-11-12 22:00:00 9.8 9 Sudoeste 28 Oeste 0 -- -- 57
2019-11-12 21:00:00 10.6 15 Oeste 25 Oeste 0 -- -- 53
2019-11-12 20:00:00 10.3 9 Noroeste 26 Oeste 0 -- -- 50
2019-11-12 19:00:00 11.4 15 Oeste 26 Oeste 0 -- -- 45
2019-11-12 18:00:00 12.9 18 Oeste 27 Noroeste 0 -- -- 40
2019-11-12 17:00:00 14.8 18 Noroeste 32 Oeste 0 -- -- 33
2019-11-12 16:00:00 15.6 18 Norte 32 Noroeste 0 -- -- 32
2019-11-12 15:00:00 16 19 Norte 30 Norte 0 -- -- 30
2019-11-12 14:00:00 15.9 16 Norte 35 Norte 0 -- -- 31
2019-11-12 13:00:00 14.9 21 Norte 33 Noroeste 0 -- -- 34
2019-11-12 12:00:00 13.9 22 Noroeste 39 Noroeste 0 -- -- 34
2019-11-12 11:00:00 13 24 Noroeste 42 Noroeste 0 -- -- 34
2019-11-12 10:00:00 11.6 20 Noroeste 30 Noroeste 0 -- -- 39
2019-11-12 09:00:00 9.1 13 Noroeste 22 Oeste 0 -- -- 49
2019-11-12 08:00:00 7.8 6 Noroeste 25 Oeste 0 -- -- 54
2019-11-12 07:00:00 6.8 9 Noroeste 16 Noroeste 0 -- -- 61
2019-11-12 06:00:00 7.5 11 Noroeste 23 Noroeste 0 -- -- 59
2019-11-12 05:00:00 6.4 15 Noroeste 19 Noroeste 0 -- -- 65
2019-11-12 04:00:00 7 9 Norte 14 Norte 0 -- -- 64
2019-11-12 03:00:00 6.9 7 Noroeste 15 Oeste 0 -- -- 64
2019-11-12 02:00:00 8 5 Noroeste 26 Noroeste 0 -- -- 62
2019-11-12 01:00:00 9.1 10 Noroeste 27 Norte 0 -- -- 60
2019-11-12 00:00:00 10.5 19 Norte 31 Noroeste 0 -- -- 57
2019-11-11 23:00:00 10.5 10 Noroeste 20 Noroeste 0 -- -- 63
2019-11-11 22:00:00 11.1 11 Noroeste 27 Oeste 0 -- -- 62
2019-11-11 21:00:00 12 9 Noroeste 32 Noroeste 0 -- -- 60
2019-11-11 20:00:00 12.3 11 Noroeste 45 Noroeste 0 -- -- 58
2019-11-11 19:00:00 12.7 26 Noroeste 45 Noroeste 0 -- -- 55
2019-11-11 18:00:00 13.3 21 Noroeste 35 Noroeste 0 -- -- 54
2019-11-11 17:00:00 14 17 Noroeste 31 Oeste 0 -- -- 49
2019-11-11 16:00:00 14.7 18 Oeste 36 Oeste 0 -- -- 45
2019-11-11 15:00:00 14.7 21 Noroeste 33 Oeste 0 -- -- 41
2019-11-11 14:00:00 14.7 18 Noroeste 32 Oeste 0 -- -- 37
2019-11-11 13:00:00 13.7 15 Noroeste 26 Oeste 0 -- -- 39
2019-11-11 12:00:00 12 14 Noroeste 26 Noroeste 0 -- -- 45
2019-11-11 11:00:00 10.3 17 Oeste 28 Oeste 0 -- -- 50
2019-11-11 10:00:00 9.8 15 Oeste 33 Oeste 0 -- -- 49
2019-11-11 09:00:00 8 4 Sudoeste 28 Noroeste 0 -- -- 53
2019-11-11 08:00:00 7.2 16 Noroeste 33 Noroeste 0 -- -- 55
2019-11-11 07:00:00 6.9 18 Noroeste 36 Noroeste 0 -- -- 55
2019-11-11 06:00:00 6.7 19 Noroeste 36 Noroeste 0 -- -- 56
2019-11-11 05:00:00 6.3 14 Noroeste 26 Noroeste 0 -- -- 57
2019-11-11 04:00:00 4.3 9 Norte 15 Norte 0 -- -- 66
2019-11-11 03:00:00 6 6 Noroeste 27 Noroeste 0 -- -- 58
2019-11-11 02:00:00 7.6 15 Noroeste 41 Noroeste 0 -- -- 53
2019-11-11 01:00:00 7.7 23 Noroeste 43 Noroeste 0 -- -- 53
2019-11-11 00:00:00 8.2 28 Noroeste 57 Noroeste 0 -- -- 51